sensor_id;sensor_type;location;lat;lon;timestamp;P1;durP1;ratioP1;P2;durP2;ratioP2
23044;SDS011;11690;51.716;23.066;2023-07-28T00:00:12;1.52;;;1.23;;
23044;SDS011;11690;51.716;23.066;2023-07-28T00:03:00;2.88;;;1.45;;
23044;SDS011;11690;51.716;23.066;2023-07-28T00:05:27;3.60;;;1.50;;
23044;SDS011;11690;51.716;23.066;2023-07-28T00:07:54;3.28;;;1.65;;
23044;SDS011;11690;51.716;23.066;2023-07-28T00:10:22;3.72;;;1.65;;
23044;SDS011;11690;51.716;23.066;2023-07-28T00:12:49;2.63;;;1.50;;
23044;SDS011;11690;51.716;23.066;2023-07-28T00:15:16;1.70;;;1.40;;
23044;SDS011;11690;51.716;23.066;2023-07-28T00:17:43;2.22;;;1.40;;
23044;SDS011;11690;51.716;23.066;2023-07-28T00:20:11;2.92;;;1.60;;
23044;SDS011;11690;51.716;23.066;2023-07-28T00:22:38;2.60;;;1.58;;
23044;SDS011;11690;51.716;23.066;2023-07-28T00:25:05;3.15;;;1.90;;
23044;SDS011;11690;51.716;23.066;2023-07-28T00:27:33;1.73;;;1.33;;
23044;SDS011;11690;51.716;23.066;2023-07-28T00:30:00;1.98;;;1.38;;
23044;SDS011;11690;51.716;23.066;2023-07-28T00:32:27;2.78;;;1.65;;
23044;SDS011;11690;51.716;23.066;2023-07-28T00:34:55;5.93;;;2.20;;
23044;SDS011;11690;51.716;23.066;2023-07-28T00:37:22;2.70;;;1.92;;
23044;SDS011;11690;51.716;23.066;2023-07-28T00:39:49;5.72;;;1.38;;
23044;SDS011;11690;51.716;23.066;2023-07-28T00:42:16;2.38;;;1.73;;
23044;SDS011;11690;51.716;23.066;2023-07-28T00:44:43;2.80;;;1.83;;
23044;SDS011;11690;51.716;23.066;2023-07-28T00:47:10;3.10;;;1.50;;
23044;SDS011;11690;51.716;23.066;2023-07-28T00:49:38;3.25;;;1.75;;
23044;SDS011;11690;51.716;23.066;2023-07-28T00:52:09;2.70;;;1.75;;
23044;SDS011;11690;51.716;23.066;2023-07-28T00:54:37;2.95;;;1.80;;
23044;SDS011;11690;51.716;23.066;2023-07-28T00:57:03;2.42;;;1.73;;
23044;SDS011;11690;51.716;23.066;2023-07-28T00:59:32;3.85;;;1.90;;
23044;SDS011;11690;51.716;23.066;2023-07-28T01:01:59;2.38;;;1.60;;
23044;SDS011;11690;51.716;23.066;2023-07-28T01:04:26;4.22;;;1.38;;
23044;SDS011;11690;51.716;23.066;2023-07-28T01:06:55;2.55;;;1.83;;
23044;SDS011;11690;51.716;23.066;2023-07-28T01:09:50;3.38;;;2.10;;
23044;SDS011;11690;51.716;23.066;2023-07-28T01:12:29;3.13;;;1.98;;
23044;SDS011;11690;51.716;23.066;2023-07-28T01:14:57;3.50;;;2.20;;
23044;SDS011;11690;51.716;23.066;2023-07-28T01:17:24;3.05;;;2.08;;
23044;SDS011;11690;51.716;23.066;2023-07-28T01:19:51;2.67;;;1.58;;
23044;SDS011;11690;51.716;23.066;2023-07-28T01:28:17;4.30;;;2.50;;
23044;SDS011;11690;51.716;23.066;2023-07-28T01:30:45;3.33;;;2.00;;
23044;SDS011;11690;51.716;23.066;2023-07-28T01:33:12;3.17;;;1.90;;
23044;SDS011;11690;51.716;23.066;2023-07-28T01:35:40;4.85;;;2.10;;
23044;SDS011;11690;51.716;23.066;2023-07-28T01:38:07;3.78;;;2.10;;
23044;SDS011;11690;51.716;23.066;2023-07-28T01:40:34;3.10;;;1.85;;
23044;SDS011;11690;51.716;23.066;2023-07-28T01:43:01;3.95;;;2.10;;
23044;SDS011;11690;51.716;23.066;2023-07-28T01:45:28;3.55;;;2.30;;
23044;SDS011;11690;51.716;23.066;2023-07-28T01:47:56;3.35;;;2.08;;
23044;SDS011;11690;51.716;23.066;2023-07-28T01:50:23;3.17;;;2.10;;
23044;SDS011;11690;51.716;23.066;2023-07-28T01:52:50;4.68;;;2.10;;
23044;SDS011;11690;51.716;23.066;2023-07-28T01:55:17;3.70;;;2.00;;
23044;SDS011;11690;51.716;23.066;2023-07-28T01:57:54;3.97;;;1.90;;
23044;SDS011;11690;51.716;23.066;2023-07-28T02:00:26;5.07;;;2.35;;
23044;SDS011;11690;51.716;23.066;2023-07-28T02:02:53;3.33;;;2.03;;
23044;SDS011;11690;51.716;23.066;2023-07-28T02:05:21;4.40;;;2.13;;
23044;SDS011;11690;51.716;23.066;2023-07-28T02:07:48;4.80;;;2.50;;
23044;SDS011;11690;51.716;23.066;2023-07-28T02:10:15;4.05;;;2.33;;
23044;SDS011;11690;51.716;23.066;2023-07-28T02:12:43;5.18;;;2.70;;
23044;SDS011;11690;51.716;23.066;2023-07-28T02:15:11;4.15;;;2.13;;
23044;SDS011;11690;51.716;23.066;2023-07-28T02:17:40;4.78;;;2.60;;
23044;SDS011;11690;51.716;23.066;2023-07-28T02:20:07;4.95;;;2.42;;
23044;SDS011;11690;51.716;23.066;2023-07-28T02:22:39;4.30;;;2.03;;
23044;SDS011;11690;51.716;23.066;2023-07-28T02:25:07;3.67;;;2.30;;
23044;SDS011;11690;51.716;23.066;2023-07-28T02:27:34;4.05;;;2.30;;
23044;SDS011;11690;51.716;23.066;2023-07-28T02:30:01;7.95;;;2.88;;
23044;SDS011;11690;51.716;23.066;2023-07-28T02:32:29;3.42;;;2.20;;
23044;SDS011;11690;51.716;23.066;2023-07-28T02:34:57;4.13;;;2.53;;
23044;SDS011;11690;51.716;23.066;2023-07-28T02:37:24;3.75;;;2.45;;
23044;SDS011;11690;51.716;23.066;2023-07-28T02:39:51;5.03;;;2.45;;
23044;SDS011;11690;51.716;23.066;2023-07-28T02:42:18;3.03;;;2.22;;
23044;SDS011;11690;51.716;23.066;2023-07-28T02:44:46;4.55;;;2.50;;
23044;SDS011;11690;51.716;23.066;2023-07-28T02:47:13;4.70;;;2.30;;
23044;SDS011;11690;51.716;23.066;2023-07-28T02:49:40;3.13;;;2.25;;
23044;SDS011;11690;51.716;23.066;2023-07-28T02:52:08;4.55;;;2.22;;
23044;SDS011;11690;51.716;23.066;2023-07-28T02:54:36;2.28;;;1.85;;
23044;SDS011;11690;51.716;23.066;2023-07-28T02:57:03;4.43;;;2.22;;
23044;SDS011;11690;51.716;23.066;2023-07-28T02:59:31;6.63;;;2.40;;
23044;SDS011;11690;51.716;23.066;2023-07-28T03:01:58;3.30;;;2.15;;
23044;SDS011;11690;51.716;23.066;2023-07-28T03:04:25;4.50;;;2.33;;
23044;SDS011;11690;51.716;23.066;2023-07-28T03:07:11;3.42;;;2.20;;
23044;SDS011;11690;51.716;23.066;2023-07-28T03:09:39;3.38;;;2.38;;
23044;SDS011;11690;51.716;23.066;2023-07-28T03:12:07;3.78;;;2.45;;
23044;SDS011;11690;51.716;23.066;2023-07-28T03:14:34;3.88;;;2.28;;
23044;SDS011;11690;51.716;23.066;2023-07-28T03:17:02;5.43;;;2.70;;
23044;SDS011;11690;51.716;23.066;2023-07-28T03:19:29;5.20;;;2.65;;
23044;SDS011;11690;51.716;23.066;2023-07-28T03:21:56;8.15;;;2.50;;
23044;SDS011;11690;51.716;23.066;2023-07-28T03:24:24;3.55;;;2.47;;
23044;SDS011;11690;51.716;23.066;2023-07-28T03:26:51;15.68;;;2.25;;
23044;SDS011;11690;51.716;23.066;2023-07-28T03:29:18;2.95;;;2.17;;
23044;SDS011;11690;51.716;23.066;2023-07-28T03:31:46;3.00;;;2.10;;
23044;SDS011;11690;51.716;23.066;2023-07-28T03:34:14;2.58;;;2.25;;
23044;SDS011;11690;51.716;23.066;2023-07-28T03:36:42;3.97;;;2.30;;
23044;SDS011;11690;51.716;23.066;2023-07-28T03:39:10;3.20;;;2.20;;
23044;SDS011;11690;51.716;23.066;2023-07-28T03:41:37;4.25;;;2.17;;
23044;SDS011;11690;51.716;23.066;2023-07-28T03:44:05;2.33;;;1.98;;
23044;SDS011;11690;51.716;23.066;2023-07-28T03:46:32;4.05;;;1.80;;
23044;SDS011;11690;51.716;23.066;2023-07-28T03:49:00;3.08;;;2.08;;
23044;SDS011;11690;51.716;23.066;2023-07-28T03:51:27;3.72;;;2.33;;
23044;SDS011;11690;51.716;23.066;2023-07-28T03:53:55;6.50;;;2.55;;
23044;SDS011;11690;51.716;23.066;2023-07-28T03:56:22;3.28;;;1.92;;
23044;SDS011;11690;51.716;23.066;2023-07-28T03:58:49;3.15;;;2.20;;
23044;SDS011;11690;51.716;23.066;2023-07-28T04:01:16;4.55;;;2.35;;
23044;SDS011;11690;51.716;23.066;2023-07-28T04:03:45;3.53;;;2.13;;
23044;SDS011;11690;51.716;23.066;2023-07-28T04:06:12;2.35;;;1.85;;
23044;SDS011;11690;51.716;23.066;2023-07-28T04:08:39;3.60;;;2.47;;
23044;SDS011;11690;51.716;23.066;2023-07-28T04:11:07;5.45;;;2.42;;
23044;SDS011;11690;51.716;23.066;2023-07-28T04:13:34;4.68;;;1.83;;
23044;SDS011;11690;51.716;23.066;2023-07-28T04:16:01;6.13;;;2.30;;
23044;SDS011;11690;51.716;23.066;2023-07-28T04:18:29;10.88;;;2.85;;
23044;SDS011;11690;51.716;23.066;2023-07-28T04:20:56;3.28;;;2.35;;
23044;SDS011;11690;51.716;23.066;2023-07-28T04:23:23;3.60;;;1.92;;
23044;SDS011;11690;51.716;23.066;2023-07-28T04:25:51;4.03;;;2.20;;
23044;SDS011;11690;51.716;23.066;2023-07-28T04:28:18;2.97;;;1.90;;
23044;SDS011;11690;51.716;23.066;2023-07-28T04:30:46;6.05;;;1.95;;
23044;SDS011;11690;51.716;23.066;2023-07-28T04:33:33;5.18;;;2.22;;
23044;SDS011;11690;51.716;23.066;2023-07-28T04:36:04;5.03;;;2.22;;
23044;SDS011;11690;51.716;23.066;2023-07-28T04:38:34;6.78;;;2.30;;
23044;SDS011;11690;51.716;23.066;2023-07-28T04:41:01;4.75;;;2.15;;
23044;SDS011;11690;51.716;23.066;2023-07-28T04:43:46;4.28;;;2.30;;
23044;SDS011;11690;51.716;23.066;2023-07-28T04:46:13;4.00;;;2.63;;
23044;SDS011;11690;51.716;23.066;2023-07-28T04:48:47;3.42;;;2.33;;
23044;SDS011;11690;51.716;23.066;2023-07-28T04:51:32;5.32;;;2.10;;
23044;SDS011;11690;51.716;23.066;2023-07-28T04:54:18;4.07;;;2.10;;
23044;SDS011;11690;51.716;23.066;2023-07-28T04:56:45;4.07;;;2.30;;
23044;SDS011;11690;51.716;23.066;2023-07-28T04:59:13;3.90;;;2.30;;
23044;SDS011;11690;51.716;23.066;2023-07-28T05:01:40;3.35;;;2.25;;
23044;SDS011;11690;51.716;23.066;2023-07-28T05:04:08;3.95;;;2.10;;
23044;SDS011;11690;51.716;23.066;2023-07-28T05:06:35;4.78;;;2.30;;
23044;SDS011;11690;51.716;23.066;2023-07-28T05:09:03;4.28;;;2.17;;
23044;SDS011;11690;51.716;23.066;2023-07-28T05:11:34;3.72;;;2.28;;
23044;SDS011;11690;51.716;23.066;2023-07-28T05:14:02;3.83;;;2.00;;
23044;SDS011;11690;51.716;23.066;2023-07-28T05:16:33;3.80;;;1.90;;
23044;SDS011;11690;51.716;23.066;2023-07-28T05:19:06;7.05;;;3.72;;
23044;SDS011;11690;51.716;23.066;2023-07-28T05:22:03;4.28;;;2.75;;
23044;SDS011;11690;51.716;23.066;2023-07-28T05:24:50;2.25;;;1.70;;
23044;SDS011;11690;51.716;23.066;2023-07-28T05:27:22;3.15;;;1.75;;
23044;SDS011;11690;51.716;23.066;2023-07-28T05:29:49;4.35;;;1.90;;
23044;SDS011;11690;51.716;23.066;2023-07-28T05:32:16;4.50;;;1.52;;
23044;SDS011;11690;51.716;23.066;2023-07-28T05:35:04;6.22;;;2.10;;
23044;SDS011;11690;51.716;23.066;2023-07-28T05:37:31;2.67;;;1.77;;
23044;SDS011;11690;51.716;23.066;2023-07-28T05:39:58;3.25;;;2.00;;
23044;SDS011;11690;51.716;23.066;2023-07-28T05:42:26;2.85;;;1.75;;
23044;SDS011;11690;51.716;23.066;2023-07-28T05:44:54;5.15;;;2.28;;
23044;SDS011;11690;51.716;23.066;2023-07-28T05:47:22;2.53;;;1.80;;
23044;SDS011;11690;51.716;23.066;2023-07-28T05:49:50;3.05;;;1.95;;
23044;SDS011;11690;51.716;23.066;2023-07-28T05:52:20;9.82;;;4.80;;
23044;SDS011;11690;51.716;23.066;2023-07-28T05:54:49;10.82;;;5.47;;
23044;SDS011;11690;51.716;23.066;2023-07-28T05:57:16;4.63;;;2.40;;
23044;SDS011;11690;51.716;23.066;2023-07-28T05:59:44;2.60;;;1.60;;
23044;SDS011;11690;51.716;23.066;2023-07-28T06:02:11;2.40;;;1.50;;
23044;SDS011;11690;51.716;23.066;2023-07-28T06:04:49;2.65;;;1.63;;
23044;SDS011;11690;51.716;23.066;2023-07-28T06:07:16;1.98;;;1.45;;
23044;SDS011;11690;51.716;23.066;2023-07-28T06:09:44;3.88;;;1.83;;
23044;SDS011;11690;51.716;23.066;2023-07-28T06:12:12;2.92;;;1.83;;
23044;SDS011;11690;51.716;23.066;2023-07-28T06:14:40;2.78;;;1.80;;
23044;SDS011;11690;51.716;23.066;2023-07-28T06:17:09;5.07;;;1.90;;
23044;SDS011;11690;51.716;23.066;2023-07-28T06:19:36;6.95;;;1.67;;
23044;SDS011;11690;51.716;23.066;2023-07-28T06:22:04;1.55;;;1.45;;
23044;SDS011;11690;51.716;23.066;2023-07-28T06:24:35;2.75;;;1.52;;
23044;SDS011;11690;51.716;23.066;2023-07-28T06:27:02;3.55;;;1.83;;
23044;SDS011;11690;51.716;23.066;2023-07-28T06:29:39;2.13;;;1.63;;
23044;SDS011;11690;51.716;23.066;2023-07-28T06:32:07;2.85;;;1.63;;
23044;SDS011;11690;51.716;23.066;2023-07-28T06:34:35;2.33;;;1.63;;
23044;SDS011;11690;51.716;23.066;2023-07-28T06:37:02;2.70;;;1.83;;
23044;SDS011;11690;51.716;23.066;2023-07-28T06:39:29;1.60;;;1.48;;
23044;SDS011;11690;51.716;23.066;2023-07-28T06:41:57;2.47;;;1.70;;
23044;SDS011;11690;51.716;23.066;2023-07-28T06:44:25;1.88;;;1.40;;
23044;SDS011;11690;51.716;23.066;2023-07-28T06:46:52;1.83;;;1.30;;
23044;SDS011;11690;51.716;23.066;2023-07-28T06:49:20;2.47;;;1.55;;
23044;SDS011;11690;51.716;23.066;2023-07-28T06:51:47;2.13;;;1.42;;
23044;SDS011;11690;51.716;23.066;2023-07-28T06:54:17;2.38;;;1.27;;
23044;SDS011;11690;51.716;23.066;2023-07-28T06:56:44;1.98;;;1.60;;
23044;SDS011;11690;51.716;23.066;2023-07-28T06:59:12;5.55;;;1.80;;
23044;SDS011;11690;51.716;23.066;2023-07-28T07:01:45;1.58;;;1.30;;
23044;SDS011;11690;51.716;23.066;2023-07-28T07:04:13;2.20;;;1.52;;
23044;SDS011;11690;51.716;23.066;2023-07-28T07:06:40;3.60;;;1.63;;
23044;SDS011;11690;51.716;23.066;2023-07-28T07:09:07;5.95;;;1.60;;
23044;SDS011;11690;51.716;23.066;2023-07-28T07:11:35;3.97;;;1.85;;
23044;SDS011;11690;51.716;23.066;2023-07-28T07:14:03;4.03;;;2.05;;
23044;SDS011;11690;51.716;23.066;2023-07-28T07:16:31;3.03;;;1.50;;
23044;SDS011;11690;51.716;23.066;2023-07-28T07:18:59;2.42;;;1.50;;
23044;SDS011;11690;51.716;23.066;2023-07-28T07:21:27;1.58;;;1.25;;
23044;SDS011;11690;51.716;23.066;2023-07-28T07:23:54;2.75;;;1.73;;
23044;SDS011;11690;51.716;23.066;2023-07-28T07:26:24;6.28;;;1.10;;
23044;SDS011;11690;51.716;23.066;2023-07-28T07:28:52;3.72;;;1.60;;
23044;SDS011;11690;51.716;23.066;2023-07-28T07:31:19;2.13;;;1.65;;
23044;SDS011;11690;51.716;23.066;2023-07-28T07:33:47;3.45;;;1.75;;
23044;SDS011;11690;51.716;23.066;2023-07-28T07:36:17;3.15;;;1.38;;
23044;SDS011;11690;51.716;23.066;2023-07-28T07:38:46;2.72;;;1.35;;
23044;SDS011;11690;51.716;23.066;2023-07-28T07:41:14;2.63;;;1.80;;
23044;SDS011;11690;51.716;23.066;2023-07-28T07:43:48;2.63;;;1.33;;
23044;SDS011;11690;51.716;23.066;2023-07-28T07:46:16;3.30;;;1.30;;
23044;SDS011;11690;51.716;23.066;2023-07-28T07:48:44;2.42;;;1.40;;
23044;SDS011;11690;51.716;23.066;2023-07-28T07:51:11;1.90;;;1.30;;
23044;SDS011;11690;51.716;23.066;2023-07-28T07:53:38;2.33;;;1.55;;
23044;SDS011;11690;51.716;23.066;2023-07-28T07:56:06;2.60;;;1.40;;
23044;SDS011;11690;51.716;23.066;2023-07-28T07:58:34;5.03;;;1.83;;
23044;SDS011;11690;51.716;23.066;2023-07-28T08:01:02;1.48;;;1.30;;
23044;SDS011;11690;51.716;23.066;2023-07-28T08:03:29;1.80;;;1.40;;
23044;SDS011;11690;51.716;23.066;2023-07-28T08:05:56;2.25;;;1.40;;
23044;SDS011;11690;51.716;23.066;2023-07-28T08:08:24;3.00;;;1.20;;
23044;SDS011;11690;51.716;23.066;2023-07-28T08:10:54;1.55;;;1.30;;
23044;SDS011;11690;51.716;23.066;2023-07-28T08:13:21;1.95;;;1.30;;
23044;SDS011;11690;51.716;23.066;2023-07-28T08:15:48;3.05;;;1.40;;
23044;SDS011;11690;51.716;23.066;2023-07-28T08:18:16;1.85;;;1.38;;
23044;SDS011;11690;51.716;23.066;2023-07-28T08:20:43;1.40;;;1.30;;
23044;SDS011;11690;51.716;23.066;2023-07-28T08:23:10;6.78;;;1.40;;
23044;SDS011;11690;51.716;23.066;2023-07-28T08:25:37;1.85;;;1.30;;
23044;SDS011;11690;51.716;23.066;2023-07-28T08:28:05;2.40;;;1.58;;
23044;SDS011;11690;51.716;23.066;2023-07-28T08:30:32;1.75;;;1.23;;
23044;SDS011;11690;51.716;23.066;2023-07-28T08:32:59;1.98;;;1.25;;
23044;SDS011;11690;51.716;23.066;2023-07-28T08:35:26;2.22;;;1.50;;
23044;SDS011;11690;51.716;23.066;2023-07-28T08:37:54;4.15;;;1.40;;
23044;SDS011;11690;51.716;23.066;2023-07-28T08:40:21;1.60;;;1.33;;
23044;SDS011;11690;51.716;23.066;2023-07-28T08:42:49;4.57;;;1.15;;
23044;SDS011;11690;51.716;23.066;2023-07-28T08:45:18;2.97;;;1.70;;
23044;SDS011;11690;51.716;23.066;2023-07-28T08:47:46;4.15;;;1.73;;
23044;SDS011;11690;51.716;23.066;2023-07-28T08:50:13;2.60;;;1.52;;
23044;SDS011;11690;51.716;23.066;2023-07-28T08:52:40;1.98;;;1.50;;
23044;SDS011;11690;51.716;23.066;2023-07-28T08:55:07;3.08;;;1.85;;
23044;SDS011;11690;51.716;23.066;2023-07-28T08:57:36;2.10;;;1.52;;
23044;SDS011;11690;51.716;23.066;2023-07-28T09:00:10;1.92;;;1.40;;
23044;SDS011;11690;51.716;23.066;2023-07-28T09:02:41;3.20;;;1.77;;
23044;SDS011;11690;51.716;23.066;2023-07-28T09:05:21;4.05;;;1.45;;
23044;SDS011;11690;51.716;23.066;2023-07-28T09:07:51;1.63;;;1.40;;
23044;SDS011;11690;51.716;23.066;2023-07-28T09:10:19;2.85;;;1.58;;
23044;SDS011;11690;51.716;23.066;2023-07-28T09:12:49;4.70;;;1.90;;
23044;SDS011;11690;51.716;23.066;2023-07-28T09:15:17;2.80;;;1.52;;
23044;SDS011;11690;51.716;23.066;2023-07-28T09:17:45;1.70;;;1.38;;
23044;SDS011;11690;51.716;23.066;2023-07-28T09:20:13;2.25;;;1.27;;
23044;SDS011;11690;51.716;23.066;2023-07-28T09:22:44;3.30;;;1.30;;
23044;SDS011;11690;51.716;23.066;2023-07-28T09:25:14;2.10;;;1.30;;
23044;SDS011;11690;51.716;23.066;2023-07-28T09:27:52;2.60;;;1.60;;
23044;SDS011;11690;51.716;23.066;2023-07-28T09:30:19;1.23;;;1.00;;
23044;SDS011;11690;51.716;23.066;2023-07-28T09:32:49;1.55;;;1.42;;
23044;SDS011;11690;51.716;23.066;2023-07-28T09:35:21;2.58;;;1.77;;
23044;SDS011;11690;51.716;23.066;2023-07-28T09:37:49;1.65;;;1.30;;
23044;SDS011;11690;51.716;23.066;2023-07-28T09:40:17;2.83;;;1.75;;
23044;SDS011;11690;51.716;23.066;2023-07-28T09:42:48;3.97;;;1.58;;
23044;SDS011;11690;51.716;23.066;2023-07-28T09:45:22;2.58;;;1.83;;
23044;SDS011;11690;51.716;23.066;2023-07-28T09:48:05;3.30;;;2.13;;
23044;SDS011;11690;51.716;23.066;2023-07-28T09:50:35;4.28;;;1.95;;
23044;SDS011;11690;51.716;23.066;2023-07-28T09:53:07;2.50;;;1.73;;
23044;SDS011;11690;51.716;23.066;2023-07-28T09:55:35;3.00;;;1.60;;
23044;SDS011;11690;51.716;23.066;2023-07-28T09:58:07;2.08;;;1.60;;
23044;SDS011;11690;51.716;23.066;2023-07-28T10:00:36;2.55;;;1.65;;
23044;SDS011;11690;51.716;23.066;2023-07-28T10:03:04;2.63;;;1.70;;
23044;SDS011;11690;51.716;23.066;2023-07-28T10:05:33;1.85;;;1.73;;
23044;SDS011;11690;51.716;23.066;2023-07-28T10:08:01;3.33;;;1.70;;
23044;SDS011;11690;51.716;23.066;2023-07-28T10:10:28;1.50;;;1.25;;
23044;SDS011;11690;51.716;23.066;2023-07-28T10:12:57;2.65;;;1.63;;
23044;SDS011;11690;51.716;23.066;2023-07-28T10:15:29;2.03;;;1.63;;
23044;SDS011;11690;51.716;23.066;2023-07-28T10:17:58;2.83;;;1.65;;
23044;SDS011;11690;51.716;23.066;2023-07-28T10:23:01;3.75;;;2.03;;
23044;SDS011;11690;51.716;23.066;2023-07-28T10:25:32;3.00;;;1.77;;
23044;SDS011;11690;51.716;23.066;2023-07-28T10:28:03;3.97;;;1.65;;
23044;SDS011;11690;51.716;23.066;2023-07-28T10:30:35;3.88;;;1.73;;
23044;SDS011;11690;51.716;23.066;2023-07-28T10:33:04;2.38;;;1.83;;
23044;SDS011;11690;51.716;23.066;2023-07-28T10:35:31;2.42;;;1.70;;
23044;SDS011;11690;51.716;23.066;2023-07-28T10:38:44;3.13;;;2.05;;
23044;SDS011;11690;51.716;23.066;2023-07-28T10:41:05;2.45;;;1.70;;
23044;SDS011;11690;51.716;23.066;2023-07-28T10:43:33;1.65;;;1.35;;
23044;SDS011;11690;51.716;23.066;2023-07-28T10:46:00;1.80;;;1.30;;
23044;SDS011;11690;51.716;23.066;2023-07-28T10:48:28;2.10;;;1.63;;
23044;SDS011;11690;51.716;23.066;2023-07-28T10:50:55;2.78;;;1.73;;
23044;SDS011;11690;51.716;23.066;2023-07-28T10:53:22;2.80;;;1.70;;
23044;SDS011;11690;51.716;23.066;2023-07-28T10:55:49;4.75;;;1.75;;
23044;SDS011;11690;51.716;23.066;2023-07-28T10:58:17;3.00;;;1.98;;
23044;SDS011;11690;51.716;23.066;2023-07-28T11:00:44;1.95;;;1.63;;
23044;SDS011;11690;51.716;23.066;2023-07-28T11:03:12;2.13;;;1.42;;
23044;SDS011;11690;51.716;23.066;2023-07-28T11:05:40;2.67;;;1.75;;
23044;SDS011;11690;51.716;23.066;2023-07-28T11:08:08;3.10;;;1.42;;
23044;SDS011;11690;51.716;23.066;2023-07-28T11:10:37;3.05;;;1.90;;
23044;SDS011;11690;51.716;23.066;2023-07-28T11:13:05;2.38;;;1.60;;
23044;SDS011;11690;51.716;23.066;2023-07-28T11:15:51;3.05;;;1.73;;
23044;SDS011;11690;51.716;23.066;2023-07-28T11:18:19;2.20;;;1.63;;
23044;SDS011;11690;51.716;23.066;2023-07-28T11:20:46;2.60;;;1.77;;
23044;SDS011;11690;51.716;23.066;2023-07-28T11:23:13;1.80;;;1.60;;
23044;SDS011;11690;51.716;23.066;2023-07-28T11:25:41;2.05;;;1.80;;
23044;SDS011;11690;51.716;23.066;2023-07-28T11:28:09;2.60;;;1.83;;
23044;SDS011;11690;51.716;23.066;2023-07-28T11:30:37;2.80;;;2.13;;
23044;SDS011;11690;51.716;23.066;2023-07-28T11:33:08;5.80;;;2.25;;
23044;SDS011;11690;51.716;23.066;2023-07-28T11:35:37;3.53;;;2.17;;
23044;SDS011;11690;51.716;23.066;2023-07-28T11:38:05;1.98;;;1.70;;
23044;SDS011;11690;51.716;23.066;2023-07-28T11:40:32;3.35;;;2.15;;
23044;SDS011;11690;51.716;23.066;2023-07-28T11:43:00;2.78;;;1.50;;
23044;SDS011;11690;51.716;23.066;2023-07-28T11:45:27;4.45;;;2.08;;
23044;SDS011;11690;51.716;23.066;2023-07-28T11:50:23;5.13;;;1.92;;
23044;SDS011;11690;51.716;23.066;2023-07-28T11:52:51;2.97;;;2.10;;
23044;SDS011;11690;51.716;23.066;2023-07-28T11:55:18;3.58;;;2.30;;
23044;SDS011;11690;51.716;23.066;2023-07-28T11:57:46;5.25;;;1.88;;
23044;SDS011;11690;51.716;23.066;2023-07-28T12:00:14;2.90;;;1.77;;
23044;SDS011;11690;51.716;23.066;2023-07-28T12:02:46;3.10;;;1.98;;
23044;SDS011;11690;51.716;23.066;2023-07-28T12:05:14;7.93;;;1.83;;
23044;SDS011;11690;51.716;23.066;2023-07-28T12:07:47;2.33;;;2.03;;
23044;SDS011;11690;51.716;23.066;2023-07-28T12:10:15;2.70;;;1.88;;
23044;SDS011;11690;51.716;23.066;2023-07-28T12:13:06;2.95;;;2.03;;
23044;SDS011;11690;51.716;23.066;2023-07-28T12:15:39;2.95;;;1.90;;
23044;SDS011;11690;51.716;23.066;2023-07-28T12:18:11;4.03;;;2.63;;
23044;SDS011;11690;51.716;23.066;2023-07-28T12:20:43;3.42;;;2.00;;
23044;SDS011;11690;51.716;23.066;2023-07-28T12:23:15;3.67;;;1.92;;
23044;SDS011;11690;51.716;23.066;2023-07-28T12:25:46;5.03;;;2.20;;
23044;SDS011;11690;51.716;23.066;2023-07-28T12:28:14;2.63;;;1.92;;
23044;SDS011;11690;51.716;23.066;2023-07-28T12:30:46;2.70;;;1.90;;
23044;SDS011;11690;51.716;23.066;2023-07-28T12:33:16;2.30;;;1.98;;
23044;SDS011;11690;51.716;23.066;2023-07-28T12:35:46;2.50;;;1.75;;
23044;SDS011;11690;51.716;23.066;2023-07-28T12:38:17;9.27;;;3.33;;
23044;SDS011;11690;51.716;23.066;2023-07-28T12:40:47;5.00;;;2.38;;
23044;SDS011;11690;51.716;23.066;2023-07-28T12:43:17;3.78;;;2.33;;
23044;SDS011;11690;51.716;23.066;2023-07-28T12:45:47;2.50;;;2.10;;
23044;SDS011;11690;51.716;23.066;2023-07-28T12:48:17;6.25;;;2.28;;
23044;SDS011;11690;51.716;23.066;2023-07-28T12:50:47;3.00;;;2.28;;
23044;SDS011;11690;51.716;23.066;2023-07-28T12:53:15;3.85;;;2.35;;
23044;SDS011;11690;51.716;23.066;2023-07-28T12:55:49;3.97;;;2.33;;
23044;SDS011;11690;51.716;23.066;2023-07-28T12:58:20;5.45;;;2.40;;
23044;SDS011;11690;51.716;23.066;2023-07-28T13:00:50;4.35;;;2.72;;
23044;SDS011;11690;51.716;23.066;2023-07-28T13:03:20;4.30;;;2.97;;
23044;SDS011;11690;51.716;23.066;2023-07-28T13:05:47;3.97;;;2.53;;
23044;SDS011;11690;51.716;23.066;2023-07-28T13:08:15;4.95;;;2.58;;
23044;SDS011;11690;51.716;23.066;2023-07-28T13:10:43;4.00;;;2.83;;
23044;SDS011;11690;51.716;23.066;2023-07-28T13:13:13;4.85;;;2.97;;
23044;SDS011;11690;51.716;23.066;2023-07-28T13:15:41;3.13;;;2.67;;
23044;SDS011;11690;51.716;23.066;2023-07-28T13:18:08;2.63;;;2.30;;
23044;SDS011;11690;51.716;23.066;2023-07-28T13:20:35;2.55;;;2.15;;
23044;SDS011;11690;51.716;23.066;2023-07-28T13:23:03;4.72;;;2.40;;
23044;SDS011;11690;51.716;23.066;2023-07-28T13:25:30;3.55;;;2.80;;
23044;SDS011;11690;51.716;23.066;2023-07-28T13:27:58;4.13;;;2.22;;
23044;SDS011;11690;51.716;23.066;2023-07-28T13:30:25;3.80;;;2.05;;
23044;SDS011;11690;51.716;23.066;2023-07-28T13:32:56;3.78;;;2.45;;
23044;SDS011;11690;51.716;23.066;2023-07-28T13:35:23;4.22;;;2.45;;
23044;SDS011;11690;51.716;23.066;2023-07-28T13:37:52;3.53;;;2.22;;
23044;SDS011;11690;51.716;23.066;2023-07-28T13:40:19;2.30;;;1.98;;
23044;SDS011;11690;51.716;23.066;2023-07-28T13:42:47;3.65;;;1.98;;
23044;SDS011;11690;51.716;23.066;2023-07-28T13:45:14;2.55;;;2.25;;
23044;SDS011;11690;51.716;23.066;2023-07-28T13:47:41;3.28;;;2.35;;
23044;SDS011;11690;51.716;23.066;2023-07-28T13:50:09;4.43;;;2.40;;
23044;SDS011;11690;51.716;23.066;2023-07-28T13:52:36;3.30;;;2.58;;
23044;SDS011;11690;51.716;23.066;2023-07-28T13:55:03;4.80;;;2.60;;
23044;SDS011;11690;51.716;23.066;2023-07-28T13:57:34;4.82;;;2.90;;
23044;SDS011;11690;51.716;23.066;2023-07-28T14:00:02;3.47;;;2.78;;
23044;SDS011;11690;51.716;23.066;2023-07-28T14:02:30;3.50;;;2.97;;
23044;SDS011;11690;51.716;23.066;2023-07-28T14:04:58;5.18;;;3.15;;
23044;SDS011;11690;51.716;23.066;2023-07-28T14:07:25;4.18;;;3.03;;
23044;SDS011;11690;51.716;23.066;2023-07-28T14:09:52;3.53;;;2.95;;
23044;SDS011;11690;51.716;23.066;2023-07-28T14:12:19;4.90;;;3.20;;
23044;SDS011;11690;51.716;23.066;2023-07-28T14:14:46;3.80;;;3.17;;
23044;SDS011;11690;51.716;23.066;2023-07-28T14:17:14;4.32;;;3.45;;
23044;SDS011;11690;51.716;23.066;2023-07-28T14:19:41;6.50;;;3.28;;
23044;SDS011;11690;51.716;23.066;2023-07-28T14:22:08;3.38;;;2.47;;
23044;SDS011;11690;51.716;23.066;2023-07-28T14:24:35;4.95;;;3.10;;
23044;SDS011;11690;51.716;23.066;2023-07-28T14:27:03;4.85;;;2.50;;
23044;SDS011;11690;51.716;23.066;2023-07-28T14:29:31;4.47;;;2.85;;
23044;SDS011;11690;51.716;23.066;2023-07-28T14:31:58;4.20;;;2.60;;
23044;SDS011;11690;51.716;23.066;2023-07-28T14:34:25;5.15;;;2.47;;
23044;SDS011;11690;51.716;23.066;2023-07-28T14:36:53;4.45;;;2.33;;
23044;SDS011;11690;51.716;23.066;2023-07-28T14:39:19;3.13;;;2.38;;
23044;SDS011;11690;51.716;23.066;2023-07-28T14:41:47;4.63;;;2.25;;
23044;SDS011;11690;51.716;23.066;2023-07-28T14:44:14;4.50;;;2.33;;
23044;SDS011;11690;51.716;23.066;2023-07-28T14:46:44;3.47;;;2.35;;
23044;SDS011;11690;51.716;23.066;2023-07-28T14:49:11;4.30;;;2.30;;
23044;SDS011;11690;51.716;23.066;2023-07-28T14:51:38;3.88;;;2.17;;
23044;SDS011;11690;51.716;23.066;2023-07-28T14:54:05;1.83;;;1.65;;